Time;durP1;ratioP1;P1;durP2;ratioP2;P2;SDS_P1;SDS_P2;PMS_P1;PMS_P2;Temp;Humidity;BMP_temperature;BMP_pressure;BME280_temperature;BME280_humidity;BME280_pressure;Samples;Min_cycle;Max_cycle;Signal;HPM_P1;HPM_P2
2022/05/27 00:02:05;;;;;;;;;;;;;;;;;;5046497;28;20111;-79
2022/05/27 00:04:30;;;;;;;;;;;;;;;;;;5046862;28;19909;-80
2022/05/27 00:06:56;;;;;;;;;;;;;;;;;;5029448;28;19913;-82
2022/05/27 00:09:23;;;;;;;;;;;;;;;;;;5034260;28;19972;-80
2022/05/27 00:11:51;;;;;;;;;;;;;;;;;;5039673;28;20383;-80
2022/05/27 00:14:16;;;;;;;;;;;;;;;;;;5051237;28;19909;-85
2022/05/27 00:16:42;;;;;;;;;;;;;;;;;;5028835;28;19916;-84
2022/05/27 00:19:07;;;;;;;;;;;;;;;;;;5005144;28;19982;-83
2022/05/27 00:21:32;;;;;;;;;;;;;;;;;;5036875;28;19909;-84
2022/05/27 00:24:00;;;;;;;;;;;;;;;;;;5016731;28;19971;-84
2022/05/27 00:26:25;;;;;;;;;;;;;;;;;;5039847;28;19912;-83
2022/05/27 00:28:50;;;;;;;;;;;;;;;;;;5014095;28;20317;-83
2022/05/27 00:31:18;;;;;;;;;;;;;;;;;;5003093;28;19998;-83
2022/05/27 00:33:44;;;;;;;;;;;;;;;;;;5020925;28;19909;-82
2022/05/27 00:36:10;;;;;;;;;;;;;;;;;;5022474;28;20328;-82
2022/05/27 00:38:35;;;;;;;;;;;;;;;;;;5041357;28;20453;-81
2022/05/27 00:41:00;;;;;;;;;;;;;;;;;;5025244;28;19909;-83
2022/05/27 00:43:26;;;;;;;;;;;;;;;;;;5009392;28;19935;-82
2022/05/27 00:45:51;;;;;;;;;;;;;;;;;;5009516;28;19955;-80
2022/05/27 00:48:16;;;;;;;;;;;;;;;;;;5012512;28;19944;-82
2022/05/27 00:50:42;;;;;;;;;;;;;;;;;;5040316;28;19940;-83
2022/05/27 00:53:07;;;;;;;;;;;;;;;;;;5039394;28;19916;-81
2022/05/27 00:55:33;;;;;;;;;;;;;;;;;;5005886;28;19909;-81
2022/05/27 00:57:58;;;;;;;;;;;;;;;;;;5046472;28;20356;-80
2022/05/27 01:00:23;;;;;;;;;;;;;;;;;;5031265;28;19908;-83
2022/05/27 01:02:49;;;;;;;;;;;;;;;;;;5004446;28;20382;-83
2022/05/27 01:05:14;;;;;;;;;;;;;;;;;;5042462;28;19963;-83
2022/05/27 01:07:40;;;;;;;;;;;;;;;;;;5047273;28;19980;-82
2022/05/27 01:10:05;;;;;;;;;;;;;;;;;;5048122;28;19916;-82
2022/05/27 01:12:30;;;;;;;;;;;;;;;;;;5040360;28;19931;-82
2022/05/27 01:14:56;;;;;;;;;;;;;;;;;;5053937;28;20375;-82
2022/05/27 01:17:21;;;;;;;;;;;;;;;;;;5040480;28;19909;-81
2022/05/27 01:22:31;;;;;;;;;;;;;;;;;;5050606;23;20455;-80
2022/05/27 01:24:56;;;;;;;;;;;;;;;;;;5036967;28;19968;-80
2022/05/27 01:27:22;;;;;;;;;;;;;;;;;;5000870;28;19913;-80
2022/05/27 01:29:47;;;;;;;;;;;;;;;;;;5032000;28;19908;-80
2022/05/27 01:32:12;;;;;;;;;;;;;;;;;;5072150;28;19908;-80
2022/05/27 01:34:38;;;;;;;;;;;;;;;;;;5069824;28;19909;-80
2022/05/27 01:37:05;;;;;;;;;;;;;;;;;;5023731;28;19975;-79
2022/05/27 01:39:30;;;;;;;;;;;;;;;;;;5009026;28;20015;-77
2022/05/27 01:41:57;;;;;;;;;;;;;;;;;;5032073;28;19955;-80
2022/05/27 01:44:22;;;;;;;;;;;;;;;;;;5004412;28;19916;-79
2022/05/27 01:46:48;;;;;;;;;;;;;;;;;;5056541;28;19912;-78
2022/05/27 01:49:13;;;;;;;;;;;;;;;;;;5019038;28;20444;-78
2022/05/27 01:51:38;;;;;;;;;;;;;;;;;;5034971;28;20038;-78
2022/05/27 01:54:04;;;;;;;;;;;;;;;;;;5017158;28;19932;-78
2022/05/27 01:56:30;;;;;;;;;;;;;;;;;;5003805;28;19909;-79
2022/05/27 01:58:55;;;;;;;;;;;;;;;;;;5017390;28;19920;-78
2022/05/27 02:01:20;;;;;;;;;;;;;;;;;;5026001;28;20387;-79
2022/05/27 02:03:46;;;;;;;;;;;;;;;;;;5027071;28;19927;-79
2022/05/27 02:06:11;;;;;;;;;;;;;;;;;;5056338;28;20003;-80
2022/05/27 02:08:38;;;;;;;;;;;;;;;;;;5023090;28;19909;-79
2022/05/27 02:11:03;;;;;;;;;;;;;;;;;;5024407;28;19916;-79
2022/05/27 02:13:28;;;;;;;;;;;;;;;;;;5025527;28;19909;-79
2022/05/27 02:15:54;;;;;;;;;;;;;;;;;;5031899;28;19908;-79
2022/05/27 02:18:19;;;;;;;;;;;;;;;;;;5046252;28;19915;-79
2022/05/27 02:20:45;;;;;;;;;;;;;;;;;;5041566;28;19912;-79
2022/05/27 02:23:10;;;;;;;;;;;;;;;;;;5002525;28;19916;-80
2022/05/27 02:25:35;;;;;;;;;;;;;;;;;;5046217;28;19935;-79
2022/05/27 02:28:01;;;;;;;;;;;;;;;;;;5038203;28;19959;-79
2022/05/27 02:30:29;;;;;;;;;;;;;;;;;;5050755;28;19934;-80
2022/05/27 02:35:07;;;;;;;;;;;;;;;;;;5004417;28;19909;-79
2022/05/27 02:35:40;;;;;;;;;;;;;;;;;;5055928;28;20015;-79
2022/05/27 02:38:05;;;;;;;;;;;;;;;;;;5039684;28;19966;-80
2022/05/27 02:40:30;;;;;;;;;;;;;;;;;;5050169;28;19954;-80
2022/05/27 02:42:56;;;;;;;;;;;;;;;;;;5047090;28;19936;-80
2022/05/27 02:45:21;;;;;;;;;;;;;;;;;;5026335;28;19955;-79
2022/05/27 02:47:47;;;;;;;;;;;;;;;;;;5039059;28;20291;-78
2022/05/27 02:50:12;;;;;;;;;;;;;;;;;;5030908;28;19940;-78
2022/05/27 02:52:37;;;;;;;;;;;;;;;;;;5007286;28;20004;-79
2022/05/27 02:55:03;;;;;;;;;;;;;;;;;;5006675;28;19977;-79
2022/05/27 02:57:28;;;;;;;;;;;;;;;;;;5034962;28;19920;-79
2022/05/27 02:59:54;;;;;;;;;;;;;;;;;;5020911;28;19955;-79
2022/05/27 03:02:19;;;;;;;;;;;;;;;;;;5032034;28;20283;-79
2022/05/27 03:04:45;;;;;;;;;;;;;;;;;;5020173;28;20288;-80
2022/05/27 03:07:10;;;;;;;;;;;;;;;;;;5043856;28;19917;-79
2022/05/27 03:09:35;;;;;;;;;;;;;;;;;;5058022;28;20378;-78
2022/05/27 03:12:05;;;;;;;;;;;;;;;;;;5039085;28;20336;-80
2022/05/27 03:14:31;;;;;;;;;;;;;;;;;;5018226;28;19915;-80
2022/05/27 03:16:56;;;;;;;;;;;;;;;;;;5045755;28;19988;-79
2022/05/27 03:19:22;;;;;;;;;;;;;;;;;;5025229;28;19908;-79
2022/05/27 03:21:47;;;;;;;;;;;;;;;;;;5004733;28;20330;-79
2022/05/27 03:24:13;;;;;;;;;;;;;;;;;;5031583;28;19955;-78
2022/05/27 03:26:38;;;;;;;;;;;;;;;;;;4998212;28;19913;-78
2022/05/27 03:29:07;;;;;;;;;;;;;;;;;;5066233;28;19908;-79
2022/05/27 03:31:32;;;;;;;;;;;;;;;;;;5026031;28;19908;-78
2022/05/27 03:33:58;;;;;;;;;;;;;;;;;;5015966;28;19925;-79
2022/05/27 03:36:23;;;;;;;;;;;;;;;;;;5048655;28;19959;-79
2022/05/27 03:38:49;;;;;;;;;;;;;;;;;;5020631;28;20367;-80
2022/05/27 03:41:14;;;;;;;;;;;;;;;;;;5016276;28;19908;-79
2022/05/27 03:43:40;;;;;;;;;;;;;;;;;;5040570;28;19915;-77
2022/05/27 03:46:05;;;;;;;;;;;;;;;;;;5038253;28;19913;-79
2022/05/27 03:48:30;;;;;;;;;;;;;;;;;;5040140;28;19911;-79
2022/05/27 03:50:56;;;;;;;;;;;;;;;;;;5027457;28;20570;-78
2022/05/27 03:53:21;;;;;;;;;;;;;;;;;;5008185;28;19915;-79
2022/05/27 03:55:47;;;;;;;;;;;;;;;;;;5020985;28;19948;-78
2022/05/27 03:58:12;;;;;;;;;;;;;;;;;;5046561;28;20188;-79
2022/05/27 04:00:37;;;;;;;;;;;;;;;;;;5042982;28;20269;-79
2022/05/27 04:03:04;;;;;;;;;;;;;;;;;;5048453;28;19909;-79
2022/05/27 04:05:30;;;;;;;;;;;;;;;;;;5023066;28;19909;-78
2022/05/27 04:07:55;;;;;;;;;;;;;;;;;;5050928;28;19917;-79
2022/05/27 04:10:21;;;;;;;;;;;;;;;;;;5021752;28;19979;-79
2022/05/27 04:12:46;;;;;;;;;;;;;;;;;;5050343;28;19952;-77
2022/05/27 04:15:11;;;;;;;;;;;;;;;;;;5027075;28;20324;-77
2022/05/27 04:17:37;;;;;;;;;;;;;;;;;;5057639;28;19912;-79
2022/05/27 04:20:02;;;;;;;;;;;;;;;;;;5040980;28;20291;-78
2022/05/27 04:22:27;;;;;;;;;;;;;;;;;;5024353;28;20269;-79
2022/05/27 04:24:53;;;;;;;;;;;;;;;;;;5024605;28;19913;-79
2022/05/27 04:27:18;;;;;;;;;;;;;;;;;;5046293;28;20283;-78
2022/05/27 04:29:44;;;;;;;;;;;;;;;;;;5048989;28;20114;-77
2022/05/27 04:32:09;;;;;;;;;;;;;;;;;;5005137;28;20424;-77
2022/05/27 04:34:34;;;;;;;;;;;;;;;;;;5040055;28;20405;-79
2022/05/27 04:37:01;;;;;;;;;;;;;;;;;;5025574;28;20372;-79
2022/05/27 04:39:26;;;;;;;;;;;;;;;;;;5022354;28;19909;-78
2022/05/27 04:41:51;;;;;;;;;;;;;;;;;;5053555;28;20000;-79
2022/05/27 04:44:17;;;;;;;;;;;;;;;;;;5038540;28;19909;-78
2022/05/27 04:46:45;;;;;;;;;;;;;;;;;;5050187;28;19916;-78
2022/05/27 04:49:50;;;;;;;;;;;;;;;;;;5026397;28;19942;-78
2022/05/27 04:51:56;;;;;;;;;;;;;;;;;;5057453;28;19919;-78
2022/05/27 04:54:21;;;;;;;;;;;;;;;;;;5020737;28;19909;-79
2022/05/27 04:56:47;;;;;;;;;;;;;;;;;;5020616;28;19908;-79
2022/05/27 04:59:12;;;;;;;;;;;;;;;;;;5011621;28;19971;-78
2022/05/27 05:01:38;;;;;;;;;;;;;;;;;;5030052;28;20299;-78
2022/05/27 05:04:04;;;;;;;;;;;;;;;;;;5001064;28;19909;-80
2022/05/27 05:06:32;;;;;;;;;;;;;;;;;;5051747;28;19935;-78
2022/05/27 05:08:57;;;;;;;;;;;;;;;;;;5060836;28;19909;-79
2022/05/27 05:11:22;;;;;;;;;;;;;;;;;;5064610;28;19915;-79
2022/05/27 05:13:48;;;;;;;;;;;;;;;;;;5055049;28;19912;-79
2022/05/27 05:16:13;;;;;;;;;;;;;;;;;;5020765;28;20380;-79
2022/05/27 05:18:38;;;;;;;;;;;;;;;;;;5032995;28;19916;-80
2022/05/27 05:21:04;;;;;;;;;;;;;;;;;;5042674;28;19922;-80
2022/05/27 05:23:29;;;;;;;;;;;;;;;;;;5043448;28;20339;-81
2022/05/27 05:25:55;;;;;;;;;;;;;;;;;;5057354;28;19995;-80
2022/05/27 05:28:21;;;;;;;;;;;;;;;;;;5004335;28;19913;-81
2022/05/27 05:30:46;;;;;;;;;;;;;;;;;;5001059;28;20261;-81
2022/05/27 05:33:12;;;;;;;;;;;;;;;;;;5043910;28;19904;-80
2022/05/27 05:35:37;;;;;;;;;;;;;;;;;;5024862;28;19915;-79
2022/05/27 05:38:03;;;;;;;;;;;;;;;;;;5033366;28;20391;-80
2022/05/27 05:40:31;;;;;;;;;;;;;;;;;;5006448;28;19962;-80
2022/05/27 05:43:00;;;;;;;;;;;;;;;;;;5051332;28;20333;-80
2022/05/27 05:45:25;;;;;;;;;;;;;;;;;;5038296;28;19908;-79
2022/05/27 05:47:51;;;;;;;;;;;;;;;;;;5056388;28;19982;-80
2022/05/27 05:50:16;;;;;;;;;;;;;;;;;;5022523;28;19916;-78
2022/05/27 05:52:42;;;;;;;;;;;;;;;;;;5032898;28;20303;-80
2022/05/27 05:55:07;;;;;;;;;;;;;;;;;;5044494;28;19905;-80
2022/05/27 05:57:32;;;;;;;;;;;;;;;;;;5052739;28;19908;-82
2022/05/27 05:59:58;;;;;;;;;;;;;;;;;;5050386;28;19914;-80
2022/05/27 06:02:23;;;;;;;;;;;;;;;;;;5055024;28;19916;-78
2022/05/27 06:04:49;;;;;;;;;;;;;;;;;;5020614;28;19959;-78
2022/05/27 06:07:15;;;;;;;;;;;;;;;;;;5029397;28;19913;-80
2022/05/27 06:09:42;;;;;;;;;;;;;;;;;;5033088;28;20363;-79
2022/05/27 06:12:08;;;;;;;;;;;;;;;;;;5021294;28;19909;-80
2022/05/27 06:14:34;;;;;;;;;;;;;;;;;;5020966;28;19911;-81
2022/05/27 06:16:59;;;;;;;;;;;;;;;;;;5051408;28;20279;-80
2022/05/27 06:19:25;;;;;;;;;;;;;;;;;;5064836;28;20327;-79
2022/05/27 06:21:50;;;;;;;;;;;;;;;;;;5036769;28;19916;-80
2022/05/27 06:24:16;;;;;;;;;;;;;;;;;;5033399;28;19972;-80
2022/05/27 06:26:42;;;;;;;;;;;;;;;;;;5032423;28;19979;-81
2022/05/27 06:34:35;;;;;;;;;;;;;;;;;;5072827;28;19912;-80
2022/05/27 06:37:01;;;;;;;;;;;;;;;;;;5023342;28;20321;-80
2022/05/27 06:39:26;;;;;;;;;;;;;;;;;;5024487;28;19908;-80
2022/05/27 06:41:52;;;;;;;;;;;;;;;;;;5043467;28;20283;-80
2022/05/27 06:44:17;;;;;;;;;;;;;;;;;;5014473;28;19889;-80
2022/05/27 06:46:43;;;;;;;;;;;;;;;;;;5048354;28;19997;-79
2022/05/27 06:49:08;;;;;;;;;;;;;;;;;;5066483;28;19909;-80
2022/05/27 06:51:34;;;;;;;;;;;;;;;;;;5043018;28;19913;-81
2022/05/27 06:53:59;;;;;;;;;;;;;;;;;;5018507;28;19937;-82
2022/05/27 06:56:25;;;;;;;;;;;;;;;;;;5033571;28;19939;-81
2022/05/27 06:58:51;;;;;;;;;;;;;;;;;;5040662;28;19974;-81
2022/05/27 07:01:16;;;;;;;;;;;;;;;;;;5011529;28;19952;-80
2022/05/27 07:03:41;;;;;;;;;;;;;;;;;;5011760;28;19912;-80
2022/05/27 07:06:07;;;;;;;;;;;;;;;;;;5038065;28;19909;-82
2022/05/27 07:08:32;;;;;;;;;;;;;;;;;;5020288;28;19915;-81
2022/05/27 07:10:58;;;;;;;;;;;;;;;;;;5032061;28;20000;-80
2022/05/27 07:13:23;;;;;;;;;;;;;;;;;;5010392;28;19909;-79
2022/05/27 07:15:52;;;;;;;;;;;;;;;;;;5021821;28;19909;-79
2022/05/27 07:18:17;;;;;;;;;;;;;;;;;;5039651;28;19919;-80
2022/05/27 07:20:44;;;;;;;;;;;;;;;;;;5041810;28;20286;-80
2022/05/27 07:23:09;;;;;;;;;;;;;;;;;;5061375;28;19920;-79
2022/05/27 07:25:35;;;;;;;;;;;;;;;;;;5050028;23;20292;-78
2022/05/27 07:28:00;;;;;;;;;;;;;;;;;;5021654;28;19908;-78
2022/05/27 07:30:26;;;;;;;;;;;;;;;;;;5023455;28;19916;-79
2022/05/27 07:32:51;;;;;;;;;;;;;;;;;;5039110;28;19908;-79
2022/05/27 07:35:16;;;;;;;;;;;;;;;;;;5006384;28;19915;-77
2022/05/27 07:37:42;;;;;;;;;;;;;;;;;;5050706;28;19928;-78
2022/05/27 07:40:08;;;;;;;;;;;;;;;;;;5027909;28;19936;-76
2022/05/27 07:42:33;;;;;;;;;;;;;;;;;;5015134;28;20178;-78
2022/05/27 07:44:59;;;;;;;;;;;;;;;;;;5037458;28;19972;-79
2022/05/27 07:47:24;;;;;;;;;;;;;;;;;;5049985;28;19979;-77
2022/05/27 07:49:50;;;;;;;;;;;;;;;;;;5030111;28;19909;-78
2022/05/27 07:52:15;;;;;;;;;;;;;;;;;;5049648;28;19966;-79
2022/05/27 07:54:41;;;;;;;;;;;;;;;;;;5027975;28;19909;-77
2022/05/27 07:57:23;;;;;;;;;;;;;;;;;;5019294;28;19991;-78
2022/05/27 07:59:49;;;;;;;;;;;;;;;;;;5022751;28;19999;-78
2022/05/27 08:02:14;;;;;;;;;;;;;;;;;;5037951;28;19955;-77
2022/05/27 08:04:40;;;;;;;;;;;;;;;;;;5034899;28;19908;-77
2022/05/27 08:07:07;;;;;;;;;;;;;;;;;;5036402;28;20371;-77
2022/05/27 08:09:32;;;;;;;;;;;;;;;;;;5046196;28;19915;-78
2022/05/27 08:11:58;;;;;;;;;;;;;;;;;;5059764;28;19956;-77
2022/05/27 08:14:23;;;;;;;;;;;;;;;;;;5022648;28;19950;-77
2022/05/27 08:16:49;;;;;;;;;;;;;;;;;;5011079;28;19912;-77
2022/05/27 08:19:15;;;;;;;;;;;;;;;;;;5029238;28;20007;-76
2022/05/27 08:21:41;;;;;;;;;;;;;;;;;;5067790;28;19943;-78
2022/05/27 08:24:09;;;;;;;;;;;;;;;;;;5010302;28;19908;-78
2022/05/27 08:26:34;;;;;;;;;;;;;;;;;;5071504;28;19958;-77
2022/05/27 08:29:00;;;;;;;;;;;;;;;;;;5067491;28;19909;-76
2022/05/27 08:31:25;;;;;;;;;;;;;;;;;;5038574;28;19909;-78
2022/05/27 08:39:24;;;;;;;;;;;;;;;;;;5042087;28;19909;-77
2022/05/27 08:41:52;;;;;;;;;;;;;;;;;;5051039;28;19908;-79
2022/05/27 08:44:19;;;;;;;;;;;;;;;;;;5014453;28;20349;-77
2022/05/27 08:46:44;;;;;;;;;;;;;;;;;;5039351;28;19912;-76
2022/05/27 08:49:10;;;;;;;;;;;;;;;;;;5032088;28;19916;-78
2022/05/27 08:51:35;;;;;;;;;;;;;;;;;;5026229;28;19909;-76
2022/05/27 08:54:01;;;;;;;;;;;;;;;;;;5037667;28;19995;-78
2022/05/27 08:59:26;;;;;;;;;;;;;;;;;;5033328;28;19909;-77
2022/05/27 09:01:52;;;;;;;;;;;;;;;;;;5050839;28;20368;-76
2022/05/27 09:04:17;;;;;;;;;;;;;;;;;;5040907;28;19992;-77
2022/05/27 09:06:46;;;;;;;;;;;;;;;;;;5042420;28;19980;-77
2022/05/27 09:09:11;;;;;;;;;;;;;;;;;;5024314;28;19944;-77
2022/05/27 09:11:37;;;;;;;;;;;;;;;;;;5021921;28;19909;-80
2022/05/27 09:14:03;;;;;;;;;;;;;;;;;;5018885;28;19935;-80
2022/05/27 09:16:29;;;;;;;;;;;;;;;;;;5036814;28;20012;-77
2022/05/27 09:18:58;;;;;;;;;;;;;;;;;;5040161;28;19947;-79
2022/05/27 09:21:25;;;;;;;;;;;;;;;;;;5031604;28;20030;-77
2022/05/27 09:23:50;;;;;;;;;;;;;;;;;;5039095;28;19969;-79
2022/05/27 09:26:19;;;;;;;;;;;;;;;;;;5011414;28;19919;-78
2022/05/27 09:28:45;;;;;;;;;;;;;;;;;;5021773;28;19905;-78
2022/05/27 09:31:10;;;;;;;;;;;;;;;;;;5024730;28;19912;-79
2022/05/27 09:33:36;;;;;;;;;;;;;;;;;;5015005;28;19944;-80
2022/05/27 09:36:02;;;;;;;;;;;;;;;;;;5025069;28;19909;-80
2022/05/27 09:38:28;;;;;;;;;;;;;;;;;;5043400;28;19951;-81
2022/05/27 09:40:54;;;;;;;;;;;;;;;;;;5017831;28;20291;-78
2022/05/27 09:43:20;;;;;;;;;;;;;;;;;;5047081;28;19919;-77
2022/05/27 09:45:46;;;;;;;;;;;;;;;;;;5052874;28;19905;-78
2022/05/27 09:48:11;;;;;;;;;;;;;;;;;;5026245;28;19912;-76
2022/05/27 09:50:37;;;;;;;;;;;;;;;;;;5017904;28;20379;-78
2022/05/27 09:53:02;;;;;;;;;;;;;;;;;;5052874;28;19950;-78
2022/05/27 09:55:28;;;;;;;;;;;;;;;;;;5048727;28;19909;-78
2022/05/27 09:57:54;;;;;;;;;;;;;;;;;;5039321;28;19972;-79
2022/05/27 10:00:20;;;;;;;;;;;;;;;;;;5056312;28;19912;-78
2022/05/27 10:02:46;;;;;;;;;;;;;;;;;;5043402;28;19909;-77
2022/05/27 10:05:12;;;;;;;;;;;;;;;;;;5048981;28;19920;-78
2022/05/27 10:07:37;;;;;;;;;;;;;;;;;;5028470;28;19913;-79
2022/05/27 10:10:03;;;;;;;;;;;;;;;;;;5037190;28;19912;-79
2022/05/27 10:12:29;;;;;;;;;;;;;;;;;;5058515;28;19909;-79
2022/05/27 10:14:55;;;;;;;;;;;;;;;;;;5059725;28;19908;-78
2022/05/27 10:17:21;;;;;;;;;;;;;;;;;;5032912;28;19916;-76
2022/05/27 10:19:46;;;;;;;;;;;;;;;;;;5071368;28;20274;-78
2022/05/27 10:22:12;;;;;;;;;;;;;;;;;;5016511;28;19915;-79
2022/05/27 10:24:40;;;;;;;;;;;;;;;;;;5026184;28;20335;-79
2022/05/27 10:27:06;;;;;;;;;;;;;;;;;;5082141;28;19955;-79
2022/05/27 10:29:32;;;;;;;;;;;;;;;;;;5069343;28;20058;-78
2022/05/27 10:31:59;;;;;;;;;;;;;;;;;;5027334;28;19908;-79
2022/05/27 10:34:24;;;;;;;;;;;;;;;;;;5048766;28;19920;-78
2022/05/27 10:36:50;;;;;;;;;;;;;;;;;;5045304;28;20291;-80
2022/05/27 10:39:15;;;;;;;;;;;;;;;;;;5012923;28;19977;-78
2022/05/27 10:41:41;;;;;;;;;;;;;;;;;;5028663;28;19909;-79
2022/05/27 10:44:07;;;;;;;;;;;;;;;;;;5062075;28;19908;-77
2022/05/27 10:46:33;;;;;;;;;;;;;;;;;;5025339;28;19916;-82
2022/05/27 10:48:58;;;;;;;;;;;;;;;;;;5039695;28;19909;-78
2022/05/27 10:51:24;;;;;;;;;;;;;;;;;;5028556;28;19908;-80
2022/05/27 10:53:50;;;;;;;;;;;;;;;;;;5063856;28;20002;-78
2022/05/27 10:56:15;;;;;;;;;;;;;;;;;;5037508;28;19909;-79
2022/05/27 11:04:09;;;;;;;;;;;;;;;;;;5073049;28;19958;-80
2022/05/27 11:06:35;;;;;;;;;;;;;;;;;;5008535;28;20375;-77
2022/05/27 11:09:01;;;;;;;;;;;;;;;;;;5013365;28;20367;-77
2022/05/27 11:11:26;;;;;;;;;;;;;;;;;;5045113;28;20294;-79
2022/05/27 11:16:37;;;;;;;;;;;;;;;;;;5033081;28;19908;-76
2022/05/27 11:19:02;;;;;;;;;;;;;;;;;;5041314;28;19958;-78
2022/05/27 11:21:28;;;;;;;;;;;;;;;;;;5034149;28;19909;-77
2022/05/27 11:23:53;;;;;;;;;;;;;;;;;;5042415;28;19919;-77
2022/05/27 11:26:19;;;;;;;;;;;;;;;;;;5041554;28;19919;-78
2022/05/27 11:28:44;;;;;;;;;;;;;;;;;;5024405;28;19988;-78
2022/05/27 11:31:11;;;;;;;;;;;;;;;;;;5023229;28;19924;-78
2022/05/27 11:33:37;;;;;;;;;;;;;;;;;;5041689;28;19951;-78
2022/05/27 11:36:09;;;;;;;;;;;;;;;;;;5021356;28;19909;-76
2022/05/27 11:38:35;;;;;;;;;;;;;;;;;;5004415;28;19916;-78
2022/05/27 11:41:00;;;;;;;;;;;;;;;;;;5053223;28;19905;-78
2022/05/27 11:43:26;;;;;;;;;;;;;;;;;;5033568;28;20268;-76
2022/05/27 11:45:51;;;;;;;;;;;;;;;;;;5058139;28;20343;-78
2022/05/27 11:48:16;;;;;;;;;;;;;;;;;;5063098;28;20374;-78
2022/05/27 11:50:42;;;;;;;;;;;;;;;;;;5026964;28;20269;-77
2022/05/27 11:53:08;;;;;;;;;;;;;;;;;;5041320;28;19909;-78
2022/05/27 11:55:33;;;;;;;;;;;;;;;;;;5024629;28;19968;-77
2022/05/27 11:57:59;;;;;;;;;;;;;;;;;;5061277;28;20093;-79
2022/05/27 12:00:24;;;;;;;;;;;;;;;;;;5016728;28;19905;-77
2022/05/27 12:02:50;;;;;;;;;;;;;;;;;;5032256;28;20290;-77
2022/05/27 12:05:16;;;;;;;;;;;;;;;;;;5053041;28;20015;-77
2022/05/27 12:07:42;;;;;;;;;;;;;;;;;;5016836;28;20340;-78
2022/05/27 12:10:07;;;;;;;;;;;;;;;;;;4997987;28;19909;-77
2022/05/27 12:12:32;;;;;;;;;;;;;;;;;;4984580;28;19915;-77
2022/05/27 12:14:58;;;;;;;;;;;;;;;;;;5016004;28;20326;-77
2022/05/27 12:17:23;;;;;;;;;;;;;;;;;;5032962;28;19912;-78
2022/05/27 12:19:49;;;;;;;;;;;;;;;;;;4999144;28;19912;-79
2022/05/27 12:22:14;;;;;;;;;;;;;;;;;;5054846;28;19909;-78
2022/05/27 12:24:41;;;;;;;;;;;;;;;;;;5003427;28;20184;-76
2022/05/27 12:27:07;;;;;;;;;;;;;;;;;;5001674;28;19920;-76
2022/05/27 12:29:32;;;;;;;;;;;;;;;;;;5018793;28;19995;-78
2022/05/27 12:31:57;;;;;;;;;;;;;;;;;;5018063;28;19909;-77
2022/05/27 12:34:23;;;;;;;;;;;;;;;;;;5019086;28;20339;-77
2022/05/27 12:36:48;;;;;;;;;;;;;;;;;;5037330;28;19909;-77
2022/05/27 12:39:14;;;;;;;;;;;;;;;;;;5017439;28;19913;-77
2022/05/27 12:41:39;;;;;;;;;;;;;;;;;;5001292;28;19912;-77
2022/05/27 12:44:05;;;;;;;;;;;;;;;;;;5017564;28;20001;-79
2022/05/27 12:46:32;;;;;;;;;;;;;;;;;;5001326;28;19909;-77
2022/05/27 12:48:57;;;;;;;;;;;;;;;;;;5017137;28;19909;-79
2022/05/27 12:51:23;;;;;;;;;;;;;;;;;;5015326;28;19905;-77
2022/05/27 12:53:49;;;;;;;;;;;;;;;;;;5020505;28;19913;-79
2022/05/27 13:01:42;;;;;;;;;;;;;;;;;;5036092;28;20288;-78
2022/05/27 13:04:08;;;;;;;;;;;;;;;;;;5033231;28;19905;-78
2022/05/27 13:06:35;;;;;;;;;;;;;;;;;;5015610;28;19909;-77
2022/05/27 13:09:00;;;;;;;;;;;;;;;;;;5054512;28;19964;-78
2022/05/27 13:11:27;;;;;;;;;;;;;;;;;;5017096;28;20020;-78
2022/05/27 13:13:53;;;;;;;;;;;;;;;;;;5016988;28;19970;-80
2022/05/27 13:16:18;;;;;;;;;;;;;;;;;;5033158;28;19909;-78
2022/05/27 13:18:45;;;;;;;;;;;;;;;;;;5003113;28;20364;-78
2022/05/27 13:21:14;;;;;;;;;;;;;;;;;;5014476;28;19984;-78
2022/05/27 13:23:40;;;;;;;;;;;;;;;;;;5028378;28;19913;-78
2022/05/27 13:26:05;;;;;;;;;;;;;;;;;;5021153;23;20322;-87
2022/05/27 13:28:31;;;;;;;;;;;;;;;;;;5020142;28;20400;-85
2022/05/27 13:30:56;;;;;;;;;;;;;;;;;;5049827;28;20368;-86
2022/05/27 13:33:21;;;;;;;;;;;;;;;;;;5026403;28;19909;-88
2022/05/27 13:35:47;;;;;;;;;;;;;;;;;;5042560;28;19915;-84
2022/05/27 13:38:12;;;;;;;;;;;;;;;;;;5048148;28;19904;-85
2022/05/27 13:40:37;;;;;;;;;;;;;;;;;;5026468;28;19955;-87
2022/05/27 13:43:03;;;;;;;;;;;;;;;;;;5062360;28;19908;-83
2022/05/27 13:45:28;;;;;;;;;;;;;;;;;;5045586;28;19913;-82
2022/05/27 13:47:54;;;;;;;;;;;;;;;;;;5043217;28;19909;-82
2022/05/27 13:50:20;;;;;;;;;;;;;;;;;;5057386;28;19920;-82
2022/05/27 13:52:45;;;;;;;;;;;;;;;;;;5028995;28;19909;-80
2022/05/27 13:55:10;;;;;;;;;;;;;;;;;;5043341;28;19940;-81
2022/05/27 13:57:36;;;;;;;;;;;;;;;;;;5080201;28;19896;-81
2022/05/27 14:00:01;;;;;;;;;;;;;;;;;;5073412;28;19905;-81
2022/05/27 14:02:37;;;;;;;;;;;;;;;;;;5058880;28;19928;-83
2022/05/27 14:05:02;;;;;;;;;;;;;;;;;;5067794;28;19924;-82
2022/05/27 14:07:28;;;;;;;;;;;;;;;;;;5035333;28;19922;-80
2022/05/27 14:09:54;;;;;;;;;;;;;;;;;;5070947;28;19972;-80
2022/05/27 14:12:19;;;;;;;;;;;;;;;;;;5057146;28;19912;-81
2022/05/27 14:14:46;;;;;;;;;;;;;;;;;;5052873;28;19909;-82
2022/05/27 14:17:13;;;;;;;;;;;;;;;;;;5027897;28;19944;-83
2022/05/27 14:19:39;;;;;;;;;;;;;;;;;;5034571;28;19968;-83
2022/05/27 14:24:49;;;;;;;;;;;;;;;;;;5055506;28;19959;-82
2022/05/27 14:27:15;;;;;;;;;;;;;;;;;;5035783;28;19948;-81
2022/05/27 14:29:40;;;;;;;;;;;;;;;;;;5024046;28;19916;-82
2022/05/27 14:32:06;;;;;;;;;;;;;;;;;;5056745;28;19917;-82
2022/05/27 14:34:32;;;;;;;;;;;;;;;;;;5047558;28;19909;-80
2022/05/27 14:36:57;;;;;;;;;;;;;;;;;;5026585;28;19908;-84
2022/05/27 14:39:23;;;;;;;;;;;;;;;;;;5043483;28;20392;-86
2022/05/27 14:41:49;;;;;;;;;;;;;;;;;;5045575;28;20004;-83
2022/05/27 14:44:17;;;;;;;;;;;;;;;;;;5043762;28;19955;-83
2022/05/27 14:46:42;;;;;;;;;;;;;;;;;;5077881;28;19935;-81
2022/05/27 14:49:10;;;;;;;;;;;;;;;;;;5048708;28;19909;-82
2022/05/27 14:51:37;;;;;;;;;;;;;;;;;;5052383;28;19912;-83
2022/05/27 14:54:03;;;;;;;;;;;;;;;;;;5049800;28;20437;-83
2022/05/27 14:56:34;;;;;;;;;;;;;;;;;;5063086;28;19917;-82
2022/05/27 14:59:00;;;;;;;;;;;;;;;;;;5019516;28;19909;-82
2022/05/27 15:01:25;;;;;;;;;;;;;;;;;;5046706;28;19909;-83
2022/05/27 15:03:51;;;;;;;;;;;;;;;;;;5020322;28;20352;-82
2022/05/27 15:06:17;;;;;;;;;;;;;;;;;;5073699;28;19938;-83
2022/05/27 15:08:42;;;;;;;;;;;;;;;;;;5019185;28;20287;-84
2022/05/27 15:11:08;;;;;;;;;;;;;;;;;;5014976;28;19963;-84
2022/05/27 15:13:33;;;;;;;;;;;;;;;;;;5023467;28;19909;-83
2022/05/27 15:15:59;;;;;;;;;;;;;;;;;;5032660;28;20323;-82
2022/05/27 15:18:24;;;;;;;;;;;;;;;;;;5035681;28;19909;-84
2022/05/27 15:20:50;;;;;;;;;;;;;;;;;;5024417;28;19909;-85
2022/05/27 15:23:15;;;;;;;;;;;;;;;;;;5042405;28;19928;-83
2022/05/27 15:25:42;;;;;;;;;;;;;;;;;;5027149;28;19916;-83
2022/05/27 15:33:25;;;;;;;;;;;;;;;;;;5031299;28;20321;-84
2022/05/27 15:35:53;;;;;;;;;;;;;;;;;;5023565;28;19932;-82
2022/05/27 15:38:18;;;;;;;;;;;;;;;;;;5056469;28;20363;-82
2022/05/27 15:40:44;;;;;;;;;;;;;;;;;;5051878;28;19918;-84
2022/05/27 15:43:09;;;;;;;;;;;;;;;;;;5044747;28;19909;-81
2022/05/27 15:45:34;;;;;;;;;;;;;;;;;;5032848;28;19909;-82
2022/05/27 15:48:00;;;;;;;;;;;;;;;;;;5027991;28;19956;-83
2022/05/27 15:50:25;;;;;;;;;;;;;;;;;;5030605;28;19908;-82
2022/05/27 15:52:50;;;;;;;;;;;;;;;;;;5052149;28;19909;-82
2022/05/27 15:55:16;;;;;;;;;;;;;;;;;;5042019;28;19909;-83
2022/05/27 15:57:41;;;;;;;;;;;;;;;;;;5013897;28;19910;-83
2022/05/27 16:00:07;;;;;;;;;;;;;;;;;;5012065;28;19905;-83
2022/05/27 16:02:32;;;;;;;;;;;;;;;;;;5017172;28;19909;-83
2022/05/27 16:04:57;;;;;;;;;;;;;;;;;;5029105;28;19964;-84
2022/05/27 16:07:23;;;;;;;;;;;;;;;;;;5040282;28;19955;-81
2022/05/27 16:09:49;;;;;;;;;;;;;;;;;;5030314;28;19932;-82
2022/05/27 16:12:14;;;;;;;;;;;;;;;;;;5033972;28;19917;-83
2022/05/27 16:14:39;;;;;;;;;;;;;;;;;;5036557;28;19909;-85
2022/05/27 16:19:49;;;;;;;;;;;;;;;;;;5029794;28;19912;-83
2022/05/27 16:22:15;;;;;;;;;;;;;;;;;;5029374;28;19933;-83
2022/05/27 16:24:40;;;;;;;;;;;;;;;;;;5025651;28;19909;-85
2022/05/27 16:27:06;;;;;;;;;;;;;;;;;;5035758;28;19921;-84
2022/05/27 16:29:31;;;;;;;;;;;;;;;;;;5052624;28;19948;-84
2022/05/27 16:31:57;;;;;;;;;;;;;;;;;;5029748;28;19909;-82
2022/05/27 16:34:22;;;;;;;;;;;;;;;;;;5045245;28;19932;-80
2022/05/27 16:37:00;;;;;;;;;;;;;;;;;;5005122;28;19901;-79
2022/05/27 16:39:25;;;;;;;;;;;;;;;;;;5017817;28;19893;-83
2022/05/27 16:41:51;;;;;;;;;;;;;;;;;;5023538;28;19994;-83
2022/05/27 16:44:16;;;;;;;;;;;;;;;;;;5055352;28;19979;-83
2022/05/27 16:46:42;;;;;;;;;;;;;;;;;;5046752;28;19909;-83
2022/05/27 16:49:08;;;;;;;;;;;;;;;;;;5034127;28;19909;-85
2022/05/27 16:51:34;;;;;;;;;;;;;;;;;;5035741;28;19982;-85
2022/05/27 16:53:59;;;;;;;;;;;;;;;;;;5036778;28;20400;-84
2022/05/27 16:56:24;;;;;;;;;;;;;;;;;;5051555;28;19969;-83
2022/05/27 16:58:51;;;;;;;;;;;;;;;;;;5046637;28;19991;-83
2022/05/27 17:01:16;;;;;;;;;;;;;;;;;;5028353;28;20240;-84
2022/05/27 17:03:42;;;;;;;;;;;;;;;;;;5005386;28;19909;-83
2022/05/27 17:06:10;;;;;;;;;;;;;;;;;;5015951;28;20402;-84
2022/05/27 17:08:36;;;;;;;;;;;;;;;;;;5037052;28;19959;-83
2022/05/27 17:11:01;;;;;;;;;;;;;;;;;;5043944;28;20327;-83
2022/05/27 17:13:26;;;;;;;;;;;;;;;;;;5040766;28;19995;-83
2022/05/27 17:15:52;;;;;;;;;;;;;;;;;;5041383;28;20351;-83
2022/05/27 17:18:17;;;;;;;;;;;;;;;;;;5051347;28;19909;-84